createdAt,value
2023-02-11T00:01:08.251Z,67.21
2023-02-11T00:03:38.871Z,68.03
2023-02-11T00:06:10.306Z,67.91
2023-02-11T00:08:39.002Z,67.72
2023-02-11T00:11:07.678Z,67.37
2023-02-11T00:13:35.644Z,68.26
2023-02-11T00:16:08.207Z,67.85
2023-02-11T00:18:37.628Z,67.77
2023-02-11T00:21:09.622Z,67.85
2023-02-11T00:23:38.293Z,67.71
2023-02-11T00:26:13.726Z,68.01
2023-02-11T00:28:43.954Z,68.27
2023-02-11T00:31:12.984Z,67.90
2023-02-11T00:33:42.673Z,67.91
2023-02-11T00:36:14.841Z,67.26
2023-02-11T00:38:44.921Z,67.90
2023-02-11T00:41:13.816Z,67.90
2023-02-11T00:43:42.505Z,67.68
2023-02-11T00:46:11.150Z,67.32
2023-02-11T00:48:39.206Z,67.72
2023-02-11T00:51:09.265Z,67.64
2023-02-11T00:53:37.881Z,67.26
2023-02-11T00:56:06.735Z,67.80
2023-02-11T00:58:34.800Z,67.05
2023-02-11T01:01:02.878Z,67.49
2023-02-11T01:03:31.008Z,67.47
2023-02-11T01:05:58.967Z,67.29
2023-02-11T01:08:28.340Z,67.69
2023-02-11T01:10:58.419Z,67.68
2023-02-11T01:13:27.587Z,67.77
2023-02-11T01:15:55.685Z,68.11
2023-02-11T01:18:26.277Z,67.57
2023-02-11T01:20:55.080Z,67.83
2023-02-11T01:23:24.547Z,67.78
2023-02-11T01:25:54.408Z,68.42
2023-02-11T01:28:24.311Z,68.63
2023-02-11T01:30:54.279Z,68.71
2023-02-11T01:33:23.410Z,68.75
2023-02-11T01:35:51.821Z,68.41
2023-02-11T01:38:23.551Z,68.76
2023-02-11T01:40:57.056Z,68.95
2023-02-11T01:43:26.967Z,68.63
2023-02-11T01:46:00.716Z,69.81
2023-02-11T01:48:32.329Z,68.75
2023-02-11T01:51:05.860Z,69.28
2023-02-11T01:53:52.769Z,69.22
2023-02-11T01:56:40.699Z,69.27
2023-02-11T01:59:16.324Z,69.54
2023-02-11T02:01:47.640Z,69.44
2023-02-11T02:04:20.088Z,69.38
2023-02-11T02:06:53.087Z,68.92
2023-02-11T02:09:24.668Z,69.03
2023-02-11T02:11:54.068Z,68.82
2023-02-11T02:14:22.170Z,69.64
2023-02-11T02:16:50.318Z,69.31
2023-02-11T02:19:52.512Z,69.09
2023-02-11T02:22:54.178Z,69.77
2023-02-11T02:25:46.769Z,69.45
2023-02-11T02:28:36.178Z,70.11
2023-02-11T02:31:26.065Z,70.30
2023-02-11T02:34:01.951Z,69.45
2023-02-11T02:36:35.546Z,70.01
2023-02-11T02:39:10.639Z,69.32
2023-02-11T02:41:40.445Z,69.25
2023-02-11T02:44:09.456Z,69.54
2023-02-11T02:46:37.915Z,69.46
2023-02-11T02:49:14.593Z,70.41
2023-02-11T02:52:04.205Z,69.76
2023-02-11T02:54:58.402Z,69.55
2023-02-11T02:57:33.939Z,70.04
2023-02-11T03:00:12.978Z,70.12
2023-02-11T03:02:51.725Z,69.80
2023-02-11T03:05:27.071Z,70.15
2023-02-11T03:08:01.415Z,69.90
2023-02-11T03:10:32.531Z,69.27
2023-02-11T03:13:02.693Z,69.70
2023-02-11T03:15:36.286Z,69.69
2023-02-11T03:18:06.748Z,70.11
2023-02-11T03:20:38.201Z,69.97
2023-02-11T03:23:13.941Z,69.61
2023-02-11T03:25:46.829Z,69.65
2023-02-11T03:28:20.491Z,69.81
2023-02-11T03:30:54.625Z,70.25
2023-02-11T03:33:28.534Z,69.84
2023-02-11T03:36:01.368Z,69.33
2023-02-11T03:38:33.552Z,69.58
2023-02-11T03:41:05.864Z,70.14
2023-02-11T03:43:37.006Z,69.63
2023-02-11T03:46:06.261Z,69.83
2023-02-11T03:48:40.111Z,70.10
2023-02-11T03:51:12.061Z,69.95
2023-02-11T03:53:42.650Z,69.71
2023-02-11T03:56:14.276Z,70.16
2023-02-11T03:58:42.300Z,70.13
2023-02-11T04:01:10.473Z,69.73
2023-02-11T04:03:38.464Z,70.25
2023-02-11T04:06:07.021Z,70.14
2023-02-11T04:08:36.681Z,70.44
2023-02-11T04:11:04.658Z,69.83
2023-02-11T04:13:32.656Z,70.24
2023-02-11T04:16:00.656Z,70.36
2023-02-11T04:18:28.709Z,70.08
2023-02-11T04:20:56.692Z,69.87
2023-02-11T04:23:24.660Z,69.61
2023-02-11T04:25:54.050Z,70.32
2023-02-11T04:28:22.061Z,69.62
2023-02-11T04:30:50.832Z,70.23
2023-02-11T04:33:19.048Z,69.37
2023-02-11T04:35:47.114Z,69.56
2023-02-11T04:38:15.176Z,69.43
2023-02-11T04:40:43.137Z,69.65
2023-02-11T04:43:12.465Z,69.69
2023-02-11T04:45:40.516Z,70.08
2023-02-11T04:48:08.503Z,69.41
2023-02-11T04:50:36.498Z,69.33
2023-02-11T04:53:04.559Z,69.06
2023-02-11T04:55:32.525Z,69.68
2023-02-11T04:58:00.541Z,69.16
2023-02-11T05:00:29.943Z,69.66
2023-02-11T05:02:57.888Z,69.23
2023-02-11T05:05:25.955Z,70.18
2023-02-11T05:07:54.066Z,70.12
2023-02-11T05:10:22.032Z,69.85
2023-02-11T05:12:50.237Z,69.76
2023-02-11T05:15:18.381Z,69.53
2023-02-11T05:17:48.155Z,69.97
2023-02-11T05:20:17.059Z,69.59
2023-02-11T05:22:45.141Z,69.54
2023-02-11T05:25:13.198Z,70.28
2023-02-11T05:27:41.166Z,70.46
2023-02-11T05:30:10.584Z,69.95
2023-02-11T05:32:38.782Z,70.19
2023-02-11T05:35:09.008Z,70.76
2023-02-11T05:37:37.331Z,70.50
2023-02-11T05:40:06.193Z,70.99
2023-02-11T05:42:34.200Z,70.47
2023-02-11T05:45:02.320Z,70.83
2023-02-11T05:47:30.555Z,70.83
2023-02-11T05:49:58.531Z,71.43
2023-02-11T05:52:27.885Z,71.23
2023-02-11T05:54:55.890Z,70.93
2023-02-11T05:57:23.868Z,70.90
2023-02-11T05:59:51.834Z,70.71
2023-02-11T06:02:19.837Z,70.64
2023-02-11T06:04:48.066Z,71.05
2023-02-11T06:07:16.150Z,71.60
2023-02-11T06:09:45.522Z,71.01
2023-02-11T06:12:13.463Z,71.61
2023-02-11T06:14:41.575Z,71.54
2023-02-11T06:17:09.583Z,71.89
2023-02-11T06:19:37.734Z,71.32
2023-02-11T06:22:05.728Z,71.56
2023-02-11T06:24:58.601Z,71.25
2023-02-11T06:27:24.030Z,71.51
2023-02-11T06:29:52.490Z,71.33
2023-02-11T06:32:42.283Z,71.35
2023-02-11T06:35:11.786Z,71.42
2023-02-11T06:37:40.239Z,71.43
2023-02-11T06:40:08.829Z,71.43
2023-02-11T06:42:39.252Z,70.87
2023-02-11T06:45:09.429Z,70.73
2023-02-11T06:47:37.794Z,70.74
2023-02-11T06:50:06.546Z,70.74
2023-02-11T06:52:34.874Z,70.59
2023-02-11T06:55:02.807Z,70.80
2023-02-11T06:57:31.473Z,70.99
2023-02-11T07:00:00.905Z,70.97
2023-02-11T07:02:28.963Z,70.91
2023-02-11T07:04:56.984Z,71.24
2023-02-11T07:07:24.938Z,71.14
2023-02-11T07:09:52.948Z,70.92
2023-02-11T07:12:21.160Z,70.90
2023-02-11T07:14:49.122Z,71.00
2023-02-11T07:17:18.471Z,70.86
2023-02-11T07:19:46.424Z,71.43
2023-02-11T07:22:14.399Z,71.13
2023-02-11T07:24:42.645Z,71.38
2023-02-11T07:27:10.618Z,71.34
2023-02-11T07:29:38.702Z,70.70
2023-02-11T07:32:07.230Z,70.73
2023-02-11T07:34:36.994Z,70.68
2023-02-11T07:37:05.011Z,71.24
2023-02-11T07:39:33.160Z,70.91
2023-02-11T07:42:01.184Z,70.43
2023-02-11T07:44:29.321Z,70.42
2023-02-11T07:46:57.321Z,70.06
2023-02-11T07:49:25.379Z,70.06
2023-02-11T07:51:54.753Z,70.44
2023-02-11T07:54:22.749Z,70.37
2023-02-11T07:56:50.819Z,70.63
2023-02-11T07:59:18.778Z,69.74
2023-02-11T08:01:46.893Z,70.31
2023-02-11T08:04:14.897Z,70.60
2023-02-11T08:06:44.289Z,69.69
2023-02-11T08:09:16.576Z,70.02
2023-02-11T08:11:45.355Z,69.85
2023-02-11T08:14:13.971Z,69.70
2023-02-11T08:16:42.852Z,69.35
2023-02-11T08:19:14.338Z,69.62
2023-02-11T08:21:42.615Z,71.28
2023-02-11T08:24:11.157Z,70.56
2023-02-11T08:26:41.062Z,70.67
2023-02-11T08:29:11.537Z,70.62
2023-02-11T08:31:41.385Z,70.43
2023-02-11T08:34:11.485Z,69.86
2023-02-11T08:36:40.418Z,69.75
2023-02-11T08:39:19.632Z,67.96
2023-02-11T08:41:50.716Z,68.35
2023-02-11T08:44:18.860Z,68.88
2023-02-11T08:46:46.978Z,68.62
2023-02-11T08:49:15.272Z,68.76
2023-02-11T08:51:43.764Z,68.53
2023-02-11T08:54:12.021Z,69.05
2023-02-11T08:56:40.698Z,69.05
2023-02-11T08:59:13.629Z,69.62
2023-02-11T09:01:41.786Z,69.53
2023-02-11T09:04:11.727Z,69.58
2023-02-11T09:06:39.959Z,68.70
2023-02-11T09:09:11.648Z,68.63
2023-02-11T09:11:40.707Z,68.75
2023-02-11T09:14:16.376Z,68.26
2023-02-11T09:16:44.496Z,68.65
2023-02-11T09:19:12.503Z,68.04
2023-02-11T09:21:40.456Z,67.42
2023-02-11T09:24:08.611Z,66.89
2023-02-11T09:26:37.948Z,66.19
2023-02-11T09:29:06.546Z,65.94
2023-02-11T09:31:36.337Z,65.17
2023-02-11T09:34:06.130Z,65.32
2023-02-11T09:36:37.409Z,64.56
2023-02-11T09:39:07.964Z,65.31
2023-02-11T09:41:55.963Z,66.21
2023-02-11T09:44:26.409Z,65.76
2023-02-11T09:46:59.377Z,65.38
2023-02-11T09:49:35.575Z,64.82
2023-02-11T09:52:07.974Z,65.63
2023-02-11T09:54:42.126Z,65.40
2023-02-11T09:57:26.574Z,65.20
2023-02-11T09:59:56.993Z,64.43
2023-02-11T10:02:35.488Z,63.89
2023-02-11T10:05:34.785Z,63.21
2023-02-11T10:08:13.643Z,62.78
2023-02-11T10:10:53.380Z,62.99
2023-02-11T10:13:37.591Z,63.19
2023-02-11T10:16:19.325Z,63.50
2023-02-11T10:19:08.675Z,62.99
2023-02-11T10:21:46.651Z,62.54
2023-02-11T10:24:18.153Z,62.90
2023-02-11T10:26:46.995Z,62.83
2023-02-11T10:29:36.635Z,62.11
2023-02-11T10:32:16.917Z,62.35
2023-02-11T10:34:46.323Z,61.92
2023-02-11T10:37:15.158Z,62.03
2023-02-11T10:39:43.404Z,61.50
2023-02-11T10:42:13.831Z,61.76
2023-02-11T10:44:45.322Z,61.29
2023-02-11T10:47:20.061Z,61.16
2023-02-11T10:49:50.058Z,61.71
2023-02-11T10:52:24.856Z,61.47
2023-02-11T10:55:01.472Z,61.30
2023-02-11T10:57:34.350Z,61.04
2023-02-11T11:00:07.676Z,61.38
2023-02-11T11:02:44.033Z,61.67
2023-02-11T11:05:20.888Z,60.54
2023-02-11T11:07:55.574Z,60.30
2023-02-11T11:10:30.033Z,60.17
2023-02-11T11:12:58.022Z,60.69
2023-02-11T11:15:27.711Z,60.49
2023-02-11T11:18:21.545Z,61.09
2023-02-11T11:20:59.801Z,59.57
2023-02-11T11:23:29.461Z,59.46
2023-02-11T11:26:05.381Z,59.38
2023-02-11T11:28:38.989Z,58.59
2023-02-11T11:31:15.816Z,58.49
2023-02-11T11:33:45.665Z,58.46
2023-02-11T11:36:18.100Z,58.39
2023-02-11T11:38:50.364Z,58.89
2023-02-11T11:41:21.547Z,58.56
2023-02-11T11:44:01.111Z,58.11
2023-02-11T11:46:31.986Z,58.02
2023-02-11T11:49:20.673Z,57.92
2023-02-11T11:51:56.209Z,58.53
2023-02-11T11:54:28.435Z,58.28
2023-02-11T11:57:01.776Z,58.40
2023-02-11T11:59:30.329Z,58.17
2023-02-11T12:02:19.521Z,57.23
2023-02-11T12:05:02.106Z,56.92
2023-02-11T12:07:50.385Z,57.30
2023-02-11T12:10:33.189Z,57.21
2023-02-11T12:13:13.130Z,57.49
2023-02-11T12:15:50.908Z,56.61
2023-02-11T12:18:38.636Z,57.04
2023-02-11T12:21:23.791Z,56.50
2023-02-11T12:24:04.980Z,56.74
2023-02-11T12:26:41.649Z,56.42
2023-02-11T12:29:18.884Z,56.11
2023-02-11T12:32:04.174Z,55.82
2023-02-11T12:34:54.860Z,55.59
2023-02-11T12:37:37.505Z,55.79
2023-02-11T12:40:18.892Z,56.96
2023-02-11T12:43:14.875Z,55.61
2023-02-11T12:45:55.519Z,55.28
2023-02-11T12:48:49.193Z,54.83
2023-02-11T12:51:32.020Z,56.04
2023-02-11T12:54:16.790Z,55.45
2023-02-11T12:56:51.932Z,55.02
2023-02-11T12:59:32.916Z,55.15
2023-02-11T13:02:05.158Z,55.33
2023-02-11T13:04:38.931Z,54.45
2023-02-11T13:07:16.453Z,54.86
2023-02-11T13:09:50.128Z,54.81
2023-02-11T13:12:37.783Z,54.81
2023-02-11T13:15:08.855Z,54.33
2023-02-11T13:17:45.110Z,54.20
2023-02-11T13:20:27.289Z,54.17
2023-02-11T13:23:02.877Z,54.58
2023-02-11T13:25:37.252Z,54.48
2023-02-11T13:28:21.910Z,52.52
2023-02-11T13:30:57.746Z,53.44
2023-02-11T13:33:33.952Z,53.25
2023-02-11T13:36:25.325Z,53.11
2023-02-11T13:39:05.707Z,52.19
2023-02-11T13:41:41.697Z,53.34
2023-02-11T13:44:28.596Z,54.04
2023-02-11T13:47:02.337Z,52.83
2023-02-11T13:49:40.464Z,52.69
2023-02-11T13:52:22.550Z,52.22
2023-02-11T13:54:53.032Z,52.88
2023-02-11T13:57:40.600Z,51.12
2023-02-11T14:00:48.600Z,51.26
2023-02-11T14:03:48.989Z,52.28
2023-02-11T14:06:42.870Z,51.62
2023-02-11T14:09:37.016Z,50.32
2023-02-11T14:12:31.603Z,50.10
2023-02-11T14:15:03.818Z,51.06
2023-02-11T14:17:35.095Z,50.97
2023-02-11T14:20:26.160Z,50.72
2023-02-11T14:22:55.608Z,50.87
2023-02-11T14:25:26.789Z,50.98
2023-02-11T14:27:59.268Z,51.03
2023-02-11T14:30:47.922Z,50.15
2023-02-11T14:33:35.522Z,49.80
2023-02-11T14:36:15.090Z,51.08
2023-02-11T14:38:57.291Z,50.50
2023-02-11T14:41:27.870Z,50.00
2023-02-11T14:43:59.237Z,50.02
2023-02-11T14:46:30.132Z,51.17
2023-02-11T14:49:01.335Z,50.16
2023-02-11T14:51:32.557Z,49.91
2023-02-11T14:54:06.029Z,49.64
2023-02-11T14:56:34.499Z,49.51
2023-02-11T14:59:02.901Z,50.15
2023-02-11T15:01:33.976Z,49.46
2023-02-11T15:04:02.966Z,49.88
2023-02-11T15:06:33.839Z,49.90
2023-02-11T15:09:08.406Z,49.19
2023-02-11T15:11:41.037Z,48.76
2023-02-11T15:14:12.361Z,48.67
2023-02-11T15:16:45.172Z,48.88
2023-02-11T15:19:25.877Z,48.24
2023-02-11T15:21:54.745Z,49.03
2023-02-11T15:24:26.713Z,48.84
2023-02-11T15:26:59.056Z,49.24
2023-02-11T15:29:27.714Z,48.58
2023-02-11T15:32:14.919Z,46.79
2023-02-11T15:34:43.120Z,48.54
2023-02-11T15:37:15.193Z,48.20
2023-02-11T15:39:44.571Z,47.96
2023-02-11T15:42:25.207Z,46.58
2023-02-11T15:45:12.974Z,47.00
2023-02-11T15:47:42.029Z,48.01
2023-02-11T15:50:21.723Z,46.57
2023-02-11T15:52:50.970Z,47.02
2023-02-11T15:55:21.867Z,47.53
2023-02-11T15:57:55.248Z,47.14
2023-02-11T16:00:27.312Z,47.12
2023-02-11T16:02:55.379Z,47.28
2023-02-11T16:05:29.831Z,46.77
2023-02-11T16:07:58.804Z,46.32
2023-02-11T16:10:31.017Z,45.89
2023-02-11T16:13:19.992Z,44.32
2023-02-11T16:15:55.941Z,46.05
2023-02-11T16:18:38.746Z,45.60
2023-02-11T16:21:13.550Z,46.03
2023-02-11T16:23:43.203Z,45.39
2023-02-11T16:26:20.867Z,45.75
2023-02-11T16:28:49.592Z,46.20
2023-02-11T16:31:18.214Z,46.32
2023-02-11T16:33:46.335Z,45.88
2023-02-11T16:36:17.182Z,47.08
2023-02-11T16:38:45.176Z,46.16
2023-02-11T16:41:14.681Z,47.17
2023-02-11T16:43:42.700Z,47.48
2023-02-11T16:46:15.280Z,48.63
2023-02-11T16:48:43.534Z,48.91
2023-02-11T16:51:14.254Z,49.56
2023-02-11T16:53:42.220Z,50.31
2023-02-11T16:56:16.780Z,50.81
2023-02-11T16:58:45.288Z,51.24
2023-02-11T17:01:14.273Z,51.50
2023-02-11T17:03:43.699Z,51.59
2023-02-11T17:06:13.545Z,52.20
2023-02-11T17:08:42.125Z,52.59
2023-02-11T17:11:10.095Z,53.01
2023-02-11T17:13:39.619Z,52.28
2023-02-11T17:16:17.035Z,52.73
2023-02-11T17:18:45.025Z,53.18
2023-02-11T17:21:13.437Z,53.03
2023-02-11T17:23:41.695Z,53.14
2023-02-11T17:26:10.279Z,52.61
2023-02-11T17:28:39.646Z,53.49
2023-02-11T17:31:11.121Z,52.96
2023-02-11T17:33:39.182Z,53.23
2023-02-11T17:36:09.096Z,53.59
2023-02-11T17:38:38.312Z,53.94
2023-02-11T17:41:07.025Z,54.13
2023-02-11T17:43:35.057Z,53.36
2023-02-11T17:46:07.507Z,54.29
2023-02-11T17:48:35.594Z,53.71
2023-02-11T17:51:03.588Z,54.06
2023-02-11T17:53:31.587Z,54.94
2023-02-11T17:55:59.667Z,54.25
2023-02-11T17:58:27.643Z,54.71
2023-02-11T18:00:59.639Z,54.71
2023-02-11T18:03:29.018Z,55.34
2023-02-11T18:06:00.955Z,54.86
2023-02-11T18:08:28.960Z,54.56
2023-02-11T18:10:56.944Z,55.10
2023-02-11T18:13:24.921Z,55.87
2023-02-11T18:15:53.263Z,55.74
2023-02-11T18:18:21.617Z,55.45
2023-02-11T18:20:58.501Z,55.89
2023-02-11T18:23:27.531Z,55.58
2023-02-11T18:25:55.537Z,56.20
2023-02-11T18:28:23.699Z,55.50
2023-02-11T18:30:58.590Z,55.65
2023-02-11T18:33:27.354Z,56.01
2023-02-11T18:35:56.331Z,55.65
2023-02-11T18:38:26.045Z,56.61
2023-02-11T18:40:54.008Z,55.93
2023-02-11T18:43:21.992Z,55.98
2023-02-11T18:45:51.763Z,56.30
2023-02-11T18:48:20.098Z,56.04
2023-02-11T18:50:48.080Z,56.09
2023-02-11T18:53:16.272Z,56.74
2023-02-11T18:55:46.277Z,57.10
2023-02-11T18:58:15.364Z,55.89
2023-02-11T19:00:45.572Z,56.63
2023-02-11T19:03:13.570Z,56.16
2023-02-11T19:05:42.452Z,56.76
2023-02-11T19:08:10.752Z,56.50
2023-02-11T19:10:41.736Z,56.28
2023-02-11T19:13:11.332Z,57.42
2023-02-11T19:15:42.237Z,56.72
2023-02-11T19:18:10.593Z,57.31
2023-02-11T19:20:40.144Z,57.18
2023-02-11T19:23:08.250Z,57.06
2023-02-11T19:25:36.223Z,57.20
2023-02-11T19:28:04.368Z,57.23
2023-02-11T19:30:33.799Z,57.24
2023-02-11T19:33:01.868Z,57.05
2023-02-11T19:35:29.830Z,57.31
2023-02-11T19:37:57.774Z,57.21
2023-02-11T19:40:25.725Z,58.20
2023-02-11T19:42:53.697Z,58.44
2023-02-11T19:45:21.657Z,57.94
2023-02-11T19:47:55.381Z,58.77
2023-02-11T19:50:23.622Z,58.81
2023-02-11T19:52:51.601Z,59.13
2023-02-11T19:55:19.989Z,58.75
2023-02-11T19:57:47.994Z,58.29
2023-02-11T20:00:16.729Z,58.77
2023-02-11T20:02:44.800Z,58.23
2023-02-11T20:05:14.160Z,58.24
2023-02-11T20:07:42.104Z,58.35
2023-02-11T20:10:11.199Z,58.30
2023-02-11T20:12:39.423Z,58.31
2023-02-11T20:15:07.905Z,57.98
2023-02-11T20:17:35.878Z,58.53
2023-02-11T20:20:04.087Z,58.02
2023-02-11T20:22:33.424Z,58.42
2023-02-11T20:25:01.412Z,58.49
2023-02-11T20:27:29.501Z,58.58
2023-02-11T20:29:57.591Z,59.48
2023-02-11T20:32:25.537Z,59.63
2023-02-11T20:34:53.562Z,59.67
2023-02-11T20:37:21.526Z,60.13
2023-02-11T20:39:50.997Z,59.88
2023-02-11T20:42:18.972Z,60.18
2023-02-11T20:44:46.914Z,60.15
2023-02-11T20:47:15.888Z,60.20
2023-02-11T20:49:43.888Z,60.18
2023-02-11T20:52:11.900Z,60.17
2023-02-11T20:54:39.887Z,59.97
2023-02-11T20:57:09.213Z,60.35
2023-02-11T20:59:37.175Z,60.27
2023-02-11T21:02:05.665Z,60.22
2023-02-11T21:04:33.788Z,59.97
2023-02-11T21:07:03.179Z,60.05
2023-02-11T21:09:33.258Z,60.16
2023-02-11T21:12:04.193Z,59.82
2023-02-11T21:14:34.051Z,59.99
2023-02-11T21:17:02.393Z,60.15
2023-02-11T21:19:30.362Z,60.01
2023-02-11T21:22:00.684Z,59.58
2023-02-11T21:24:30.757Z,59.37
2023-02-11T21:26:59.807Z,59.82
2023-02-11T21:29:27.887Z,59.31
2023-02-11T21:31:57.302Z,59.27
2023-02-11T21:34:25.420Z,59.28
2023-02-11T21:36:53.438Z,59.83
2023-02-11T21:39:21.545Z,60.04
2023-02-11T21:41:49.697Z,60.12
2023-02-11T21:44:17.892Z,60.08
2023-02-11T21:46:46.082Z,59.76
2023-02-11T21:49:15.662Z,60.15
2023-02-11T21:51:43.776Z,60.17
2023-02-11T21:54:12.282Z,60.00
2023-02-11T21:56:40.657Z,60.22
2023-02-11T21:59:08.619Z,60.40
2023-02-11T22:01:36.920Z,60.47
2023-02-11T22:04:05.461Z,60.15
2023-02-11T22:06:35.542Z,60.05
2023-02-11T22:09:08.536Z,60.53
2023-02-11T22:11:36.988Z,60.37
2023-02-11T22:14:05.298Z,60.79
2023-02-11T22:16:33.963Z,61.04
2023-02-11T22:19:03.423Z,60.76
2023-02-11T22:21:31.587Z,61.17
2023-02-11T22:24:01.003Z,61.26
2023-02-11T22:26:29.580Z,60.78
2023-02-11T22:28:57.863Z,61.04
2023-02-11T22:31:29.071Z,61.43
2023-02-11T22:33:57.245Z,60.99
2023-02-11T22:36:27.225Z,61.47
2023-02-11T22:38:55.483Z,61.97
2023-02-11T22:41:24.962Z,61.95
2023-02-11T22:43:53.139Z,62.26
2023-02-11T22:46:21.506Z,61.96
2023-02-11T22:48:50.457Z,61.90
2023-02-11T22:51:20.497Z,62.11
2023-02-11T22:53:52.940Z,62.54
2023-02-11T22:56:21.990Z,62.50
2023-02-11T22:58:53.304Z,62.40
2023-02-11T23:01:21.462Z,62.42
2023-02-11T23:03:49.530Z,62.90
2023-02-11T23:06:17.975Z,62.99
2023-02-11T23:08:46.087Z,63.09
2023-02-11T23:11:17.163Z,63.18
2023-02-11T23:13:46.394Z,63.05
2023-02-11T23:16:18.232Z,63.09
2023-02-11T23:18:47.430Z,62.71
2023-02-11T23:21:17.172Z,62.31
2023-02-11T23:23:46.325Z,62.70
2023-02-11T23:26:16.821Z,62.75
2023-02-11T23:28:46.124Z,62.71
2023-02-11T23:31:18.863Z,62.58
2023-02-11T23:33:48.065Z,62.73
2023-02-11T23:36:17.021Z,62.12
2023-02-11T23:38:45.479Z,61.92
2023-02-11T23:41:14.612Z,62.19
2023-02-11T23:43:42.824Z,61.79
2023-02-11T23:46:11.695Z,61.68
2023-02-11T23:48:41.425Z,61.77
2023-02-11T23:51:10.669Z,62.24
2023-02-11T23:53:39.016Z,62.01
2023-02-11T23:56:08.748Z,61.90
2023-02-11T23:58:36.804Z,62.37
